Time;durP1;ratioP1;P1;durP2;ratioP2;P2;SDS_P1;SDS_P2;PMS_P1;PMS_P2;Temp;Humidity;BMP_temperature;BMP_pressure;BME280_temperature;BME280_humidity;BME280_pressure;Samples;Min_cycle;Max_cycle;Signal;HPM_P1;HPM_P2
2024/02/24 00:00:05;;;;;;;3.43;1.90;;;;;;;3.39;97.39;152235.81;5096007;28;20527;-88
2024/02/24 00:02:38;;;;;;;3.13;2.33;;;;;;;3.38;97.43;152233.28;5102630;28;20495;-87
2024/02/24 00:05:05;;;;;;;2.77;2.10;;;;;;;3.36;97.29;152228.09;5091638;28;20891;-88
2024/02/24 00:07:31;;;;;;;2.33;1.80;;;;;;;3.37;96.75;152230.69;5087723;28;20472;-87
2024/02/24 00:09:59;;;;;;;2.30;1.67;;;;;;;3.38;96.47;152233.28;5110384;28;20451;-88
2024/02/24 00:12:26;;;;;;;2.60;1.77;;;;;;;3.39;96.26;152235.81;5108321;28;20480;-88
2024/02/24 00:14:52;;;;;;;2.40;1.67;;;;;;;3.44;96.51;152248.69;5110732;28;20497;-86
2024/02/24 00:17:19;;;;;;;3.40;1.33;;;;;;;3.48;96.69;152259.00;5104204;28;20445;-88
2024/02/24 00:19:45;;;;;;;2.53;1.83;;;;;;;3.51;97.14;152265.44;5094298;28;20508;-87
2024/02/24 00:22:12;;;;;;;2.27;1.83;;;;;;;3.53;97.08;152271.88;5093745;28;20460;-88
2024/02/24 00:24:38;;;;;;;5.40;2.00;;;;;;;3.55;97.01;152277.03;5093609;28;20969;-88
2024/02/24 00:27:06;;;;;;;3.60;2.30;;;;;;;3.58;97.02;152284.75;5083468;28;20494;-88
2024/02/24 00:29:33;;;;;;;2.47;1.73;;;;;;;3.62;97.01;152295.06;5111549;28;20450;-87
2024/02/24 00:31:59;;;;;;;2.10;1.60;;;;;;;3.63;96.83;152297.63;5110784;28;20455;-88
2024/02/24 00:34:26;;;;;;;2.40;2.20;;;;;;;3.65;97.16;152302.75;5081107;28;20514;-88
2024/02/24 00:36:52;;;;;;;2.70;1.70;;;;;;;3.66;96.58;152304.06;5104819;28;20510;-88
2024/02/24 00:39:19;;;;;;;2.03;1.83;;;;;;;3.64;96.21;152300.22;5112931;28;20448;-87
2024/02/24 00:41:45;;;;;;;2.23;1.80;;;;;;;3.63;96.12;152297.63;5108814;28;20508;-88
2024/02/24 00:44:14;;;;;;;2.60;1.70;;;;;;;3.63;96.03;152296.31;5099406;28;20463;-87
2024/02/24 00:46:40;;;;;;;2.93;1.83;;;;;;;3.60;96.28;152288.66;5121656;28;20843;-87
2024/02/24 00:49:07;;;;;;;2.40;2.03;;;;;;;3.58;96.77;152284.75;5115821;28;20460;-88
2024/02/24 00:51:33;;;;;;;3.43;2.10;;;;;;;3.54;96.14;152274.47;5095229;27;20512;-88
2024/02/24 00:54:00;;;;;;;2.40;1.80;;;;;;;3.50;95.98;152262.84;5116348;27;20471;-87
2024/02/24 00:56:26;;;;;;;2.70;2.10;;;;;;;3.48;95.80;152257.72;5108915;27;20447;-88
2024/02/24 00:58:53;;;;;;;3.33;2.10;;;;;;;3.46;95.79;152253.88;5126316;27;20432;-87
2024/02/24 01:01:21;;;;;;;2.80;2.23;;;;;;;3.43;96.18;152244.84;5116045;27;20487;-88
2024/02/24 01:03:47;;;;;;;3.07;2.30;;;;;;;3.42;96.54;152243.56;5131943;27;20497;-87
2024/02/24 01:06:14;;;;;;;2.50;1.97;;;;;;;3.42;97.11;152242.25;5119514;27;20455;-87
2024/02/24 01:08:40;;;;;;;5.30;2.17;;;;;;;3.40;97.00;152238.41;5116154;27;20444;-88
2024/02/24 01:11:09;;;;;;;3.47;2.30;;;;;;;3.38;97.43;152233.28;5111801;28;20440;-88
2024/02/24 01:13:35;;;;;;;2.90;2.00;;;;;;;3.39;97.48;152235.81;5095837;28;20468;-87
2024/02/24 01:16:02;;;;;;;2.70;1.90;;;;;;;3.34;97.71;152222.97;5126535;27;20513;-89
2024/02/24 01:18:30;;;;;;;3.97;2.10;;;;;;;3.32;97.33;152217.81;5119751;27;20814;-88
2024/02/24 01:20:57;;;;;;;4.10;2.07;;;;;;;3.32;97.68;152217.81;5096336;28;20433;-87
2024/02/24 01:23:24;;;;;;;4.80;1.90;;;;;;;3.27;97.93;152204.97;5094348;27;20479;-88
2024/02/24 01:25:50;;;;;;;3.00;2.20;;;;;;;3.15;97.23;152174.03;5116342;27;20838;-88
2024/02/24 01:28:17;;;;;;;2.03;1.73;;;;;;;3.15;97.71;152172.81;5110885;27;20450;-88
2024/02/24 01:30:44;;;;;;;2.80;2.13;;;;;;;3.16;97.14;152176.66;5116273;27;20489;-88
2024/02/24 01:33:10;;;;;;;3.83;2.43;;;;;;;3.14;97.41;152171.50;5101656;27;20495;-88
2024/02/24 01:35:38;;;;;;;3.63;2.10;;;;;;;3.13;97.48;152167.63;5101660;27;20430;-88
2024/02/24 01:38:05;;;;;;;3.60;2.10;;;;;;;3.15;98.19;152172.81;5091073;28;20490;-88
2024/02/24 01:40:33;;;;;;;2.27;1.80;;;;;;;3.11;97.94;152163.78;5106497;27;20496;-88
2024/02/24 01:42:59;;;;;;;3.53;2.17;;;;;;;3.10;98.15;152161.19;5122767;27;20440;-87
2024/02/24 01:45:26;;;;;;;3.27;2.53;;;;;;;3.14;98.42;152171.50;5094518;28;20441;-88
2024/02/24 01:47:52;;;;;;;3.03;2.27;;;;;;;3.18;98.56;152180.53;5117801;27;20499;-88
2024/02/24 01:50:20;;;;;;;3.53;2.23;;;;;;;3.23;98.80;152194.63;5098067;27;20873;-88
2024/02/24 01:52:48;;;;;;;2.80;1.87;;;;;;;3.28;99.06;152207.56;5121987;27;20476;-87
2024/02/24 01:55:16;;;;;;;3.83;1.80;;;;;;;3.35;99.22;152225.56;5095561;27;20443;-87
2024/02/24 01:57:43;;;;;;;2.77;1.90;;;;;;;3.41;99.44;152239.72;5108370;27;20459;-88
2024/02/24 02:00:11;;;;;;;2.07;1.80;;;;;;;3.47;99.60;152256.44;5107940;28;20559;-88
2024/02/24 02:02:43;;;;;;;2.03;1.60;;;;;;;3.55;99.75;152275.72;5074664;28;20550;-88
2024/02/24 02:05:13;;;;;;;2.43;1.60;;;;;;;3.61;99.91;152291.19;5088737;28;20951;-87
2024/02/24 02:07:39;;;;;;;3.60;1.90;;;;;;;3.64;99.37;152300.22;5071339;28;20554;-87
2024/02/24 02:10:08;;;;;;;2.97;2.00;;;;;;;3.71;98.69;152315.69;5101355;28;20946;-88
2024/02/24 02:12:35;;;;;;;2.80;1.80;;;;;;;3.74;98.76;152324.66;5099189;28;20572;-87
2024/02/24 02:15:03;;;;;;;3.87;2.00;;;;;;;3.75;98.52;152327.25;5077793;28;20540;-88
2024/02/24 02:17:30;;;;;;;2.70;1.40;;;;;;;3.74;99.45;152324.66;5098201;28;20489;-88
2024/02/24 02:20:00;;;;;;;2.83;1.63;;;;;;;3.77;99.03;152331.09;5094310;28;20875;-87
2024/02/24 02:22:28;;;;;;;2.13;1.60;;;;;;;3.82;99.17;152343.97;5072672;28;20461;-88
2024/02/24 02:24:55;;;;;;;1.87;1.57;;;;;;;3.84;99.39;152349.16;5095345;28;20448;-87
2024/02/24 02:27:21;;;;;;;2.37;1.60;;;;;;;3.86;100.00;152355.56;5085396;28;20464;-88
2024/02/24 02:29:48;;;;;;;2.50;1.60;;;;;;;3.86;100.00;152354.28;5090483;28;20501;-88
2024/02/24 02:32:14;;;;;;;2.83;1.80;;;;;;;3.80;100.00;152338.81;5085037;28;20441;-87
2024/02/24 02:34:41;;;;;;;2.07;1.53;;;;;;;3.80;100.00;152338.81;5083955;28;20469;-88
2024/02/24 02:37:07;;;;;;;1.93;1.20;;;;;;;3.81;100.00;152341.41;5082757;28;20456;-88
2024/02/24 02:39:53;;;;;;;2.00;1.20;;;;;;;3.76;100.00;152328.53;5080724;28;20816;-88
2024/02/24 02:42:19;;;;;;;2.50;1.33;;;;;;;3.73;100.00;152322.13;5099655;28;20797;-88
2024/02/24 02:44:46;;;;;;;1.73;1.40;;;;;;;3.72;100.00;152319.50;5068419;28;20434;-88
2024/02/24 02:47:12;;;;;;;2.27;1.20;;;;;;;3.70;100.00;152314.38;5071700;28;20809;-87
2024/02/24 02:49:39;;;;;;;2.00;1.30;;;;;;;3.67;100.00;152307.94;5097012;28;20439;-88
2024/02/24 02:52:06;;;;;;;1.60;1.20;;;;;;;3.67;100.00;152306.66;5082152;28;20457;-88
2024/02/24 02:54:32;;;;;;;3.47;2.10;;;;;;;3.65;100.00;152302.75;5108512;27;20479;-88
2024/02/24 02:57:00;;;;;;;1.87;1.50;;;;;;;3.63;100.00;152297.63;5095933;28;20484;-88
2024/02/24 02:59:27;;;;;;;2.80;1.40;;;;;;;3.61;100.00;152292.47;5072537;28;20437;-87
2024/02/24 03:01:54;;;;;;;1.57;1.40;;;;;;;3.58;100.00;152283.47;5107131;28;20479;-87
2024/02/24 03:04:21;;;;;;;1.73;1.00;;;;;;;3.57;100.00;152282.16;5127557;27;20530;-88
2024/02/24 03:06:47;;;;;;;2.03;1.30;;;;;;;3.58;100.00;152283.47;5097975;27;20505;-87
2024/02/24 03:09:14;;;;;;;1.33;1.10;;;;;;;3.57;100.00;152282.16;5097412;28;20448;-88
2024/02/24 03:11:40;;;;;;;2.17;1.20;;;;;;;3.54;100.00;152274.47;5101280;27;20506;-88
2024/02/24 03:14:08;;;;;;;2.10;1.53;;;;;;;3.54;100.00;152274.47;5112819;27;20502;-88
2024/02/24 03:16:35;;;;;;;1.50;0.93;;;;;;;3.54;100.00;152274.47;5090730;28;20463;-88
2024/02/24 03:19:01;;;;;;;1.47;1.00;;;;;;;3.55;100.00;152277.03;5090092;27;20492;-88
2024/02/24 03:21:29;;;;;;;2.33;1.10;;;;;;;3.54;100.00;152274.47;5096657;27;20865;-88
2024/02/24 03:23:56;;;;;;;1.80;1.13;;;;;;;3.58;100.00;152283.47;5099819;28;20448;-88
2024/02/24 03:26:22;;;;;;;1.50;1.17;;;;;;;3.59;100.00;152286.03;5108562;28;20471;-88
2024/02/24 03:28:49;;;;;;;1.17;0.80;;;;;;;3.59;100.00;152286.03;5125595;27;20996;-88
2024/02/24 03:31:17;;;;;;;1.30;0.80;;;;;;;3.63;100.00;152296.31;5084082;28;20505;-88
2024/02/24 03:33:43;;;;;;;1.67;0.97;;;;;;;3.62;100.00;152295.06;5102439;28;20553;-88
2024/02/24 03:36:12;;;;;;;1.63;0.97;;;;;;;3.63;100.00;152297.63;5091686;28;20432;-87
2024/02/24 03:38:39;;;;;;;1.60;1.00;;;;;;;3.61;100.00;152292.47;5105134;28;20443;-88
2024/02/24 03:41:05;;;;;;;1.50;0.97;;;;;;;3.61;100.00;152291.19;5100561;27;20494;-88
2024/02/24 03:43:32;;;;;;;1.70;0.87;;;;;;;3.62;100.00;152293.78;5108945;28;20443;-88
2024/02/24 03:45:58;;;;;;;2.20;0.97;;;;;;;3.58;100.00;152284.75;5109709;28;20497;-88
2024/02/24 03:48:26;;;;;;;2.60;1.07;;;;;;;3.61;100.00;152291.19;5109290;28;20432;-88
2024/02/24 03:50:53;;;;;;;3.20;0.97;;;;;;;3.60;100.00;152289.88;5123128;27;20456;-88
2024/02/24 03:53:19;;;;;;;2.07;1.03;;;;;;;3.61;100.00;152292.47;5109887;28;20945;-88
2024/02/24 03:55:46;;;;;;;2.80;1.10;;;;;;;3.58;100.00;152284.75;5091041;28;20453;-88
2024/02/24 03:58:12;;;;;;;2.40;0.87;;;;;;;3.58;100.00;152284.75;5091325;28;20463;-88
2024/02/24 04:00:42;;;;;;;1.57;1.00;;;;;;;3.54;100.00;152274.47;5105590;28;20468;-88
2024/02/24 04:03:08;;;;;;;1.37;1.10;;;;;;;3.53;100.00;152270.59;5106968;28;20447;-88
2024/02/24 04:05:36;;;;;;;1.23;0.80;;;;;;;3.50;100.00;152264.16;5080295;28;20463;-87
2024/02/24 04:08:03;;;;;;;1.50;0.80;;;;;;;3.47;100.00;152255.13;5079751;28;20460;-87
2024/02/24 04:10:30;;;;;;;1.73;1.00;;;;;;;3.44;100.00;152248.69;5083966;28;20923;-88
2024/02/24 04:12:56;;;;;;;1.50;0.93;;;;;;;3.41;100.00;152241.00;5098472;28;20451;-87
2024/02/24 04:15:23;;;;;;;1.80;1.27;;;;;;;3.38;100.00;152233.28;5079413;28;20456;-87
2024/02/24 04:17:50;;;;;;;1.57;0.93;;;;;;;3.36;100.00;152228.09;5081602;28;20464;-87
2024/02/24 04:20:17;;;;;;;1.27;0.90;;;;;;;3.36;100.00;152228.09;5086826;28;21034;-88
2024/02/24 04:22:45;;;;;;;2.40;1.17;;;;;;;3.32;100.00;152216.53;5097479;28;20551;-88
2024/02/24 04:25:11;;;;;;;1.30;1.20;;;;;;;3.28;100.00;152207.56;5100905;28;24197;-88
2024/02/24 04:27:38;;;;;;;1.57;1.20;;;;;;;3.28;100.00;152207.56;5077486;28;20544;-88
2024/02/24 04:30:06;;;;;;;1.40;1.20;;;;;;;3.26;100.00;152202.38;5090647;28;20449;-87
2024/02/24 04:32:32;;;;;;;1.77;1.00;;;;;;;3.25;100.00;152198.53;5084807;28;20449;-88
2024/02/24 04:34:59;;;;;;;1.90;1.10;;;;;;;3.24;100.00;152197.22;5083979;28;20857;-88
2024/02/24 04:37:25;;;;;;;1.63;1.10;;;;;;;3.24;100.00;152195.94;5106250;27;20452;-88
2024/02/24 04:39:53;;;;;;;3.20;1.50;;;;;;;3.20;100.00;152186.97;5091650;28;20521;-89
2024/02/24 04:42:20;;;;;;;3.23;1.60;;;;;;;3.20;100.00;152185.66;5106990;27;20568;-88
2024/02/24 04:44:49;;;;;;;1.20;0.90;;;;;;;3.19;100.00;152184.38;5073091;28;20453;-87
2024/02/24 04:47:16;;;;;;;3.23;1.10;;;;;;;3.21;100.00;152189.50;5076254;28;20456;-88
2024/02/24 04:49:42;;;;;;;2.13;1.40;;;;;;;3.19;100.00;152184.38;5094984;28;20849;-87
2024/02/24 04:52:09;;;;;;;1.60;1.30;;;;;;;3.20;100.00;152186.97;5089642;28;20793;-88
2024/02/24 04:54:35;;;;;;;1.80;1.20;;;;;;;3.22;100.00;152192.09;5083143;28;20526;-88
2024/02/24 04:57:04;;;;;;;1.53;0.97;;;;;;;3.25;100.00;152198.53;5099743;28;20433;-87
2024/02/24 04:59:30;;;;;;;1.27;0.80;;;;;;;3.25;100.00;152199.81;5099661;28;20457;-87
2024/02/24 05:01:57;;;;;;;3.30;1.40;;;;;;;3.26;100.00;152202.38;5114789;28;20436;-87
2024/02/24 05:04:23;;;;;;;1.30;1.00;;;;;;;3.29;100.00;152208.81;5094908;28;20435;-87
2024/02/24 05:06:50;;;;;;;1.83;1.13;;;;;;;3.30;100.00;152211.41;5096378;28;20467;-88
2024/02/24 05:09:16;;;;;;;1.77;1.00;;;;;;;3.32;100.00;152216.53;5114149;28;20467;-87
2024/02/24 05:11:43;;;;;;;2.40;1.20;;;;;;;3.31;100.00;152215.22;5096093;28;20949;-88
2024/02/24 05:14:11;;;;;;;3.53;1.37;;;;;;;3.35;100.00;152225.56;5115136;28;20471;-87
2024/02/24 05:16:40;;;;;;;2.20;1.70;;;;;;;3.37;100.00;152229.41;5090452;28;20806;-88
2024/02/24 05:19:07;;;;;;;2.10;1.30;;;;;;;3.37;100.00;152230.69;5112229;27;20435;-88
2024/02/24 05:21:33;;;;;;;1.87;1.30;;;;;;;3.39;100.00;152235.81;5110248;28;20518;-88
2024/02/24 05:24:00;;;;;;;1.83;1.37;;;;;;;3.40;100.00;152237.13;5116592;27;20428;-88
2024/02/24 05:26:28;;;;;;;2.80;1.90;;;;;;;3.40;100.00;152237.13;5095003;28;20452;-88
2024/02/24 05:28:54;;;;;;;3.80;2.50;;;;;;;3.41;100.00;152241.00;5108406;28;20518;-87
2024/02/24 05:31:22;;;;;;;3.63;1.70;;;;;;;3.43;100.00;152244.84;5098220;28;20432;-88
2024/02/24 05:33:51;;;;;;;3.33;1.33;;;;;;;3.44;100.00;152247.44;5070260;28;20474;-88
2024/02/24 05:36:18;;;;;;;3.50;2.23;;;;;;;3.44;100.00;152248.69;5113397;28;20443;-88
2024/02/24 05:38:45;;;;;;;2.43;1.67;;;;;;;3.47;100.00;152255.13;5114147;28;20439;-88
2024/02/24 05:41:12;;;;;;;1.90;1.40;;;;;;;3.46;100.00;152253.88;5114745;28;20428;-87
2024/02/24 05:43:38;;;;;;;2.03;0.87;;;;;;;3.46;100.00;152252.59;5114750;28;20436;-87
2024/02/24 05:46:06;;;;;;;2.40;1.60;;;;;;;3.47;100.00;152255.13;5096211;28;20424;-88
2024/02/24 05:48:34;;;;;;;1.43;1.00;;;;;;;3.48;100.00;152259.00;5114112;28;20447;-88
2024/02/24 05:51:01;;;;;;;1.87;1.37;;;;;;;3.48;100.00;152259.00;5098648;28;20452;-88
2024/02/24 05:53:27;;;;;;;1.80;1.30;;;;;;;3.49;100.00;152261.59;5079161;28;20441;-88
2024/02/24 05:55:54;;;;;;;1.83;1.47;;;;;;;3.49;100.00;152260.31;5111162;28;20433;-88
2024/02/24 05:58:21;;;;;;;2.07;1.10;;;;;;;3.52;100.00;152268.03;5114379;28;20447;-88
2024/02/24 06:00:48;;;;;;;1.93;1.33;;;;;;;3.54;100.00;152274.47;5089429;28;20464;-88
2024/02/24 06:03:14;;;;;;;1.27;1.00;;;;;;;3.56;100.00;152278.31;5088097;28;20475;-88
2024/02/24 06:05:42;;;;;;;2.03;1.10;;;;;;;3.58;100.00;152284.75;5092222;28;20517;-87
2024/02/24 06:08:09;;;;;;;2.30;1.80;;;;;;;3.61;100.00;152292.47;5080380;28;20450;-88
2024/02/24 06:10:37;;;;;;;1.90;1.30;;;;;;;3.62;100.00;152295.06;5091462;28;20534;-88
2024/02/24 06:13:05;;;;;;;1.80;1.43;;;;;;;3.64;100.00;152298.91;5073493;28;20457;-87
2024/02/24 06:15:31;;;;;;;2.57;1.40;;;;;;;3.66;100.00;152304.06;5082847;28;20804;-88
2024/02/24 06:17:58;;;;;;;3.50;1.30;;;;;;;3.66;100.00;152305.34;5092589;28;20460;-87
2024/02/24 06:20:24;;;;;;;2.57;1.73;;;;;;;3.69;100.00;152313.09;5099350;28;20467;-88
2024/02/24 06:22:53;;;;;;;2.10;1.40;;;;;;;3.71;100.00;152316.91;5084699;28;20464;-88
2024/02/24 06:25:19;;;;;;;2.60;1.73;;;;;;;3.73;100.00;152320.81;5088864;28;20441;-88
2024/02/24 06:27:46;;;;;;;1.77;1.37;;;;;;;3.77;100.00;152331.09;5080820;28;20461;-88
2024/02/24 06:30:13;;;;;;;3.63;2.00;;;;;;;3.79;100.00;152336.22;5077902;28;20530;-87
2024/02/24 06:32:39;;;;;;;2.07;1.53;;;;;;;3.79;100.00;152336.22;5084493;28;20457;-88
2024/02/24 06:35:06;;;;;;;2.47;1.77;;;;;;;3.80;100.00;152340.13;5100127;28;20484;-88
2024/02/24 06:37:33;;;;;;;3.30;2.47;;;;;;;3.81;100.00;152341.41;5066675;28;21089;-88
2024/02/24 06:40:01;;;;;;;11.70;7.27;;;;;;;3.82;100.00;152343.97;5105752;28;20885;-88
2024/02/24 06:42:28;;;;;;;5.07;3.70;;;;;;;3.86;100.00;152354.28;5084179;28;20522;-89
2024/02/24 06:44:55;;;;;;;3.27;2.77;;;;;;;3.88;100.00;152359.44;5072479;28;20457;-89
2024/02/24 06:47:22;;;;;;;3.40;3.10;;;;;;;3.89;100.00;152363.25;5086715;28;20461;-88
2024/02/24 06:49:48;;;;;;;4.10;2.10;;;;;;;3.91;100.00;152367.16;5082207;28;20927;-88
2024/02/24 06:52:14;;;;;;;4.40;3.10;;;;;;;3.93;100.00;152372.28;5074043;28;20465;-88
2024/02/24 06:54:41;;;;;;;3.80;3.10;;;;;;;3.98;100.00;152385.16;5101880;27;20507;-88
2024/02/24 06:57:09;;;;;;;3.90;2.90;;;;;;;3.98;100.00;152385.16;5078206;28;20453;-89
2024/02/24 06:59:35;;;;;;;2.63;2.43;;;;;;;3.99;100.00;152387.75;5097959;27;20444;-88
2024/02/24 07:02:02;;;;;;;2.10;1.90;;;;;;;4.02;100.00;152395.50;5132206;27;20522;-87
2024/02/24 07:04:30;;;;;;;1.80;1.47;;;;;;;4.05;100.00;152403.22;5112899;27;20443;-88
2024/02/24 07:06:57;;;;;;;3.10;1.80;;;;;;;4.05;100.00;152403.22;5103029;27;20942;-88
2024/02/24 07:09:23;;;;;;;2.40;1.40;;;;;;;4.09;100.00;152413.50;5087190;28;20459;-88
2024/02/24 07:11:50;;;;;;;2.00;1.40;;;;;;;4.10;100.00;152416.09;5118464;27;20447;-89
2024/02/24 07:14:18;;;;;;;1.70;1.10;;;;;;;4.14;100.00;152426.38;5107612;28;20518;-88
2024/02/24 07:16:44;;;;;;;2.13;1.17;;;;;;;4.13;100.00;152425.09;5094907;28;20464;-88
2024/02/24 07:19:12;;;;;;;2.60;1.63;;;;;;;4.12;100.00;152421.25;5110311;28;21030;-89
2024/02/24 07:21:41;;;;;;;1.70;1.47;;;;;;;4.15;100.00;152428.97;5076887;28;20457;-88
2024/02/24 07:24:08;;;;;;;1.50;0.90;;;;;;;4.15;100.00;152430.28;5123438;27;20447;-89
2024/02/24 07:26:41;;;;;;;1.40;1.00;;;;;;;4.16;100.00;152432.81;5116040;27;20550;-88
2024/02/24 07:29:08;;;;;;;1.63;0.60;;;;;;;4.17;100.00;152434.13;5111194;28;20451;-88
2024/02/24 07:31:36;;;;;;;1.70;1.00;;;;;;;4.19;100.00;152440.56;5076820;28;20479;-89
2024/02/24 07:34:02;;;;;;;1.47;0.90;;;;;;;4.19;100.00;152440.56;5113299;27;20862;-89
2024/02/24 07:36:29;;;;;;;3.03;0.80;;;;;;;4.23;100.00;152449.59;5097509;28;20455;-89
2024/02/24 07:38:56;;;;;;;1.43;1.00;;;;;;;4.22;100.00;152447.00;5120731;27;20535;-88
2024/02/24 07:41:22;;;;;;;1.30;0.90;;;;;;;4.26;100.00;152457.31;5092546;28;20436;-87
2024/02/24 07:43:49;;;;;;;1.47;0.70;;;;;;;4.26;100.00;152457.31;5110492;28;20440;-88
2024/02/24 07:46:20;;;;;;;1.33;0.97;;;;;;;4.29;100.00;152465.00;5079518;28;20460;-87
2024/02/24 07:48:47;;;;;;;1.63;0.87;;;;;;;4.29;100.00;152465.00;5066081;28;20485;-87
2024/02/24 07:51:14;;;;;;;0.87;0.60;;;;;;;4.35;100.00;152480.47;5078241;28;20444;-88
2024/02/24 07:53:40;;;;;;;1.40;0.63;;;;;;;4.36;100.00;152483.06;5092319;28;20493;-88
2024/02/24 07:56:07;;;;;;;0.93;0.60;;;;;;;4.37;100.00;152485.63;5108798;28;20560;-88
2024/02/24 07:58:34;;;;;;;1.30;0.70;;;;;;;4.40;100.00;152492.06;5082286;28;20456;-88
2024/02/24 08:01:00;;;;;;;1.00;0.60;;;;;;;4.40;100.00;152492.06;5114715;27;20475;-88
2024/02/24 08:03:27;;;;;;;1.40;0.70;;;;;;;4.41;100.00;152494.66;5106734;28;20444;-88
2024/02/24 08:05:54;;;;;;;0.93;0.53;;;;;;;4.43;100.00;152501.09;5122599;28;20559;-88
2024/02/24 08:08:21;;;;;;;1.27;0.63;;;;;;;4.44;100.00;152502.38;5112398;28;20780;-88
2024/02/24 08:10:47;;;;;;;1.07;0.70;;;;;;;4.45;100.00;152504.97;5106090;28;20948;-88
2024/02/24 08:13:14;;;;;;;1.67;0.60;;;;;;;4.45;100.00;152506.22;5109593;28;20459;-87
2024/02/24 08:15:40;;;;;;;0.83;0.47;;;;;;;4.44;100.00;152503.69;5071209;28;20812;-89
2024/02/24 08:18:07;;;;;;;0.90;0.40;;;;;;;4.47;100.00;152511.41;5091924;28;20817;-87
2024/02/24 08:20:34;;;;;;;1.17;0.50;;;;;;;4.49;100.00;152516.56;5095690;28;20454;-88
2024/02/24 08:23:01;;;;;;;1.30;0.47;;;;;;;4.51;100.00;152521.69;5094323;28;20453;-88
2024/02/24 08:25:28;;;;;;;0.80;0.50;;;;;;;4.57;100.00;152535.88;5108918;28;20501;-88
2024/02/24 08:27:54;;;;;;;0.70;0.40;;;;;;;4.62;100.00;152550.06;5100550;28;20460;-88
2024/02/24 08:30:21;;;;;;;1.50;0.60;;;;;;;4.66;100.00;152559.09;5097263;28;20521;-87
2024/02/24 08:32:49;;;;;;;0.80;0.50;;;;;;;4.75;100.00;152583.56;5125220;28;21055;-87
2024/02/24 08:35:17;;;;;;;0.90;0.50;;;;;;;4.91;100.00;152623.50;5102067;28;20471;-88
2024/02/24 08:37:44;;;;;;;1.20;0.60;;;;;;;5.02;100.00;152650.56;5105654;28;20461;-87
2024/02/24 08:40:13;;;;;;;0.80;0.40;;;;;;;5.13;100.00;152678.94;5093201;28;20805;-88
2024/02/24 08:42:40;;;;;;;0.90;0.40;;;;;;;5.26;100.00;152712.44;5125460;28;20456;-88
2024/02/24 08:45:06;;;;;;;0.90;0.40;;;;;;;5.37;100.00;152740.81;5127095;28;20448;-89
2024/02/24 08:47:33;;;;;;;1.10;0.50;;;;;;;5.45;99.55;152761.44;5109707;28;20471;-88
2024/02/24 08:50:00;;;;;;;1.40;0.50;;;;;;;5.52;98.18;152779.47;5099871;28;20460;-88
2024/02/24 08:52:26;;;;;;;1.00;0.60;;;;;;;5.59;98.07;152797.50;5113348;28;20495;-89
2024/02/24 08:54:53;;;;;;;0.80;0.60;;;;;;;5.61;98.55;152802.72;5084768;28;20477;-88
2024/02/24 08:57:21;;;;;;;0.93;0.67;;;;;;;5.65;97.55;152813.00;5086388;28;20964;-89
2024/02/24 08:59:48;;;;;;;2.00;0.77;;;;;;;5.66;96.78;152814.28;5114949;28;20480;-88
2024/02/24 09:02:15;;;;;;;1.43;0.60;;;;;;;5.76;96.80;152840.06;5128958;27;20451;-88
2024/02/24 09:04:42;;;;;;;1.00;0.60;;;;;;;5.81;95.75;152854.28;5107988;28;20816;-87
2024/02/24 09:07:08;;;;;;;1.20;0.57;;;;;;;5.93;94.83;152884.00;5116560;28;20456;-88
2024/02/24 09:09:35;;;;;;;1.83;1.13;;;;;;;6.05;93.57;152914.94;5122221;28;20447;-87
2024/02/24 09:12:02;;;;;;;0.87;0.63;;;;;;;6.07;93.28;152921.38;5127002;27;20994;-87
2024/02/24 09:14:30;;;;;;;0.80;0.43;;;;;;;6.05;91.83;152916.25;5114534;27;20489;-88
2024/02/24 09:16:56;;;;;;;0.90;0.60;;;;;;;6.14;91.88;152938.19;5102716;27;20451;-87
2024/02/24 09:19:24;;;;;;;0.90;0.50;;;;;;;6.24;89.75;152963.97;5113683;27;20452;-88
2024/02/24 09:21:50;;;;;;;1.00;0.70;;;;;;;6.32;90.66;152983.31;5112382;27;20449;-88
2024/02/24 09:24:17;;;;;;;1.00;0.60;;;;;;;6.30;87.84;152979.41;5106249;27;20463;-88
2024/02/24 09:26:46;;;;;;;1.73;0.50;;;;;;;6.32;88.25;152983.31;5112607;28;20468;-88
2024/02/24 09:29:12;;;;;;;1.57;0.63;;;;;;;6.32;87.67;152984.63;5107732;28;20438;-88
2024/02/24 09:31:41;;;;;;;1.50;0.70;;;;;;;6.37;88.36;152996.22;5114871;27;20459;-88
2024/02/24 09:34:07;;;;;;;0.97;0.50;;;;;;;6.41;87.43;153006.53;5122778;27;20467;-88
2024/02/24 09:36:37;;;;;;;1.10;0.50;;;;;;;6.51;87.41;153033.63;5112408;28;20487;-88
2024/02/24 09:39:04;;;;;;;1.50;0.80;;;;;;;6.55;86.13;153043.97;5142334;27;20527;-89
2024/02/24 09:41:31;;;;;;;1.13;0.60;;;;;;;6.62;86.71;153060.72;5098778;28;20444;-88
2024/02/24 09:43:57;;;;;;;1.00;0.50;;;;;;;6.67;86.04;153074.91;5098928;28;20493;-88
2024/02/24 09:46:24;;;;;;;0.90;0.40;;;;;;;6.68;85.51;153076.22;5103939;27;20459;-87
2024/02/24 09:48:53;;;;;;;0.80;0.50;;;;;;;6.77;84.29;153099.47;5109915;28;20529;-88
2024/02/24 09:51:19;;;;;;;1.20;0.57;;;;;;;6.89;85.32;153129.13;5136362;27;20506;-87
2024/02/24 09:53:46;;;;;;;1.60;0.70;;;;;;;6.89;86.45;153130.44;5132968;27;20435;-88
2024/02/24 09:56:13;;;;;;;1.13;0.60;;;;;;;6.91;86.36;153134.34;5114431;27;20475;-87
2024/02/24 09:58:41;;;;;;;1.23;0.60;;;;;;;6.91;86.05;153134.34;5133296;27;20530;-88
2024/02/24 10:01:09;;;;;;;1.67;0.83;;;;;;;6.98;83.26;153153.69;5111295;27;20480;-88
2024/02/24 10:03:40;;;;;;;2.90;0.60;;;;;;;7.03;85.22;153166.59;5100956;27;20441;-88
2024/02/24 10:06:10;;;;;;;1.33;0.77;;;;;;;7.03;86.19;153166.59;5112877;28;20444;-88
2024/02/24 10:08:37;;;;;;;3.10;0.70;;;;;;;7.02;85.30;153162.69;5138416;27;20444;-87
2024/02/24 10:11:05;;;;;;;6.63;0.57;;;;;;;7.04;83.63;153169.16;5119748;27;20443;-86
2024/02/24 10:13:32;;;;;;;0.80;0.47;;;;;;;7.11;82.57;153187.25;5098135;28;20479;-88
2024/02/24 10:16:03;;;;;;;1.23;0.47;;;;;;;7.17;82.53;153202.75;5092131;28;20468;-87
2024/02/24 10:18:32;;;;;;;1.67;0.50;;;;;;;7.21;81.87;153213.06;5092770;28;20958;-88
2024/02/24 10:20:59;;;;;;;0.93;0.50;;;;;;;7.22;82.05;153215.66;5076162;28;20440;-88
2024/02/24 10:23:27;;;;;;;1.10;0.50;;;;;;;7.22;82.12;153214.38;5106937;28;20456;-88
2024/02/24 10:25:57;;;;;;;1.00;0.50;;;;;;;7.24;80.83;153220.81;5109982;27;20964;-87
2024/02/24 10:28:25;;;;;;;1.00;0.50;;;;;;;7.31;80.43;153238.88;5096019;28;20487;-87
2024/02/24 10:30:53;;;;;;;0.80;0.40;;;;;;;7.34;80.07;153246.63;5099634;28;20444;-88
2024/02/24 10:33:24;;;;;;;1.43;0.40;;;;;;;7.43;79.36;153267.31;5104001;27;20460;-88
2024/02/24 10:36:01;;;;;;;1.00;0.40;;;;;;;7.44;80.00;153269.91;5117255;27;20470;-88
2024/02/24 10:38:30;;;;;;;0.80;0.40;;;;;;;7.48;81.04;153281.50;5074647;28;20492;-87
2024/02/24 10:41:00;;;;;;;0.90;0.50;;;;;;;7.48;77.74;153280.22;5121626;27;20603;-88
2024/02/24 10:43:28;;;;;;;1.20;0.50;;;;;;;7.57;77.51;153303.47;5126974;27;20464;-87
2024/02/24 10:45:55;;;;;;;1.60;0.43;;;;;;;7.63;78.24;153320.25;5102296;28;20456;-87
2024/02/24 10:48:25;;;;;;;1.30;0.50;;;;;;;7.64;78.56;153322.84;5112003;27;20452;-87
2024/02/24 10:50:52;;;;;;;0.80;0.40;;;;;;;7.65;76.30;153324.16;5094079;27;20433;-87
2024/02/24 10:53:21;;;;;;;1.07;0.40;;;;;;;7.70;78.63;153337.06;5123406;27;20831;-87
2024/02/24 10:55:50;;;;;;;1.03;0.40;;;;;;;7.68;77.29;153331.84;5116401;27;20475;-87
2024/02/24 10:58:19;;;;;;;0.80;0.40;;;;;;;7.65;78.06;153324.16;5125684;27;20549;-87
2024/02/24 11:00:46;;;;;;;0.83;0.40;;;;;;;7.60;74.74;153312.50;5096927;27;20485;-87
2024/02/24 11:03:13;;;;;;;1.00;0.43;;;;;;;7.67;76.08;153329.31;5101842;28;20505;-87
2024/02/24 11:05:45;;;;;;;0.80;0.30;;;;;;;7.72;74.66;153342.22;5091965;28;20484;-87
2024/02/24 11:08:36;;;;;;;1.40;0.50;;;;;;;7.77;74.67;153355.13;5101988;28;20479;-87
2024/02/24 11:11:06;;;;;;;1.93;0.50;;;;;;;7.79;76.02;153360.28;5108228;27;20463;-88
2024/02/24 11:13:33;;;;;;;1.10;0.30;;;;;;;7.82;74.22;153368.03;5094157;28;20440;-88
2024/02/24 11:15:59;;;;;;;0.90;0.37;;;;;;;7.93;75.42;153397.78;5108603;28;20472;-87
2024/02/24 11:18:57;;;;;;;0.90;0.40;;;;;;;8.03;71.79;153422.31;5120750;27;20538;-87
2024/02/24 11:21:57;;;;;;;0.90;0.30;;;;;;;8.16;72.07;153455.91;5091481;28;20480;-88
2024/02/24 11:24:25;;;;;;;1.30;0.40;;;;;;;8.18;75.64;153461.06;5083589;27;20459;-88
2024/02/24 11:26:53;;;;;;;0.90;0.30;;;;;;;8.16;76.26;153455.91;5108344;27;20440;-88
2024/02/24 11:29:20;;;;;;;0.80;0.50;;;;;;;8.18;75.44;153461.06;5107765;28;20452;-88